Time;durP1;ratioP1;P1;durP2;ratioP2;P2;SDS_P1;SDS_P2;PMS_P1;PMS_P2;Temp;Humidity;BMP_temperature;BMP_pressure;BME280_temperature;BME280_humidity;BME280_pressure;Samples;Min_cycle;Max_cycle;Signal;HPM_P1;HPM_P2
2023/06/19 00:01:18;;;;;;;;;;;;;;;17.95;93.32;101025.96;107368;1258;99181;-69
2023/06/19 00:03:49;;;;;;;;;;;;;;;17.92;93.16;101024.41;107184;1254;99166;-67
2023/06/19 00:06:18;;;;;;;;;;;;;;;17.90;92.91;101023.79;107384;1254;112812;-67
2023/06/19 00:08:46;;;;;;;;;;;;;;;17.88;93.22;101023.35;107419;1254;109429;-67
2023/06/19 00:11:15;;;;;;;;;;;;;;;17.83;93.60;101018.93;107395;1254;108265;-66
2023/06/19 00:13:43;;;;;;;;;;;;;;;17.79;93.68;101014.66;107397;1254;99071;-66
2023/06/19 00:16:11;;;;;;;;;;;;;;;17.76;93.78;101018.46;107440;1254;99092;-68
2023/06/19 00:18:39;;;;;;;;;;;;;;;17.73;93.84;101016.13;107401;1254;114124;-68
2023/06/19 00:21:12;;;;;;;;;;;;;;;17.72;94.11;101016.99;107372;1254;110123;-67
2023/06/19 00:23:40;;;;;;;;;;;;;;;17.71;94.12;101017.42;107411;1254;108609;-66
2023/06/19 00:26:14;;;;;;;;;;;;;;;17.67;93.78;101013.80;107368;1254;99185;-70
2023/06/19 00:28:45;;;;;;;;;;;;;;;17.65;93.94;101012.60;107416;1254;99091;-67
2023/06/19 00:31:14;;;;;;;;;;;;;;;17.64;94.01;101012.20;107252;1254;113366;-66
2023/06/19 00:33:43;;;;;;;;;;;;;;;17.63;94.07;101011.95;107283;1254;110228;-66
2023/06/19 00:36:12;;;;;;;;;;;;;;;17.62;93.97;101011.75;107372;1254;108474;-67
2023/06/19 00:38:41;;;;;;;;;;;;;;;17.60;94.08;101011.98;107308;1255;99273;-65
2023/06/19 00:41:10;;;;;;;;;;;;;;;17.60;93.47;101008.88;107428;1254;99179;-66
2023/06/19 00:43:38;;;;;;;;;;;;;;;17.60;93.36;101011.95;107352;1253;113323;-66
2023/06/19 00:46:07;;;;;;;;;;;;;;;17.61;92.87;101012.96;107360;1254;109677;-69
2023/06/19 00:48:36;;;;;;;;;;;;;;;17.63;92.62;101014.65;107385;1254;107459;-68
2023/06/19 00:51:04;;;;;;;;;;;;;;;17.65;92.48;101007.57;107407;1254;99163;-67
2023/06/19 00:53:33;;;;;;;;;;;;;;;17.68;92.21;101008.65;107465;1254;99346;-66
2023/06/19 00:56:03;;;;;;;;;;;;;;;17.68;92.08;101004.52;107474;1254;113519;-65
2023/06/19 00:58:31;;;;;;;;;;;;;;;17.69;92.03;101005.27;107487;1258;110891;-66
2023/06/19 01:00:59;;;;;;;;;;;;;;;17.69;91.67;101007.44;107275;1254;107773;-68
2023/06/19 01:03:36;;;;;;;;;;;;;;;17.68;91.34;101016.42;107264;1254;99104;-67
2023/06/19 01:06:16;;;;;;;;;;;;;;;17.70;91.04;101022.40;107445;1256;99214;-67
2023/06/19 01:08:44;;;;;;;;;;;;;;;17.72;91.62;101023.31;107500;1254;112493;-66
2023/06/19 01:11:15;;;;;;;;;;;;;;;17.66;91.17;101023.95;107440;1254;109286;-66
2023/06/19 01:13:58;;;;;;;;;;;;;;;17.62;90.94;101026.55;107278;1259;108370;-68
2023/06/19 01:16:28;;;;;;;;;;;;;;;17.58;90.99;101022.29;107380;1254;99171;-67
2023/06/19 01:18:56;;;;;;;;;;;;;;;17.54;90.89;101023.29;107471;1254;99246;-67
2023/06/19 01:21:25;;;;;;;;;;;;;;;17.49;90.88;101018.31;107451;1254;112604;-67
2023/06/19 01:23:56;;;;;;;;;;;;;;;17.48;90.84;101015.70;107462;1254;108740;-65
2023/06/19 01:26:27;;;;;;;;;;;;;;;17.46;90.61;101018.12;107437;1254;110229;-67
2023/06/19 01:28:58;;;;;;;;;;;;;;;17.43;90.57;101015.67;107469;1254;99175;-69
2023/06/19 01:31:38;;;;;;;;;;;;;;;17.39;90.81;101015.41;107475;1256;99083;-67
2023/06/19 01:34:07;;;;;;;;;;;;;;;17.34;90.77;101013.94;107477;1254;113152;-65
2023/06/19 01:36:36;;;;;;;;;;;;;;;17.33;90.58;101012.82;107417;1254;110586;-66
2023/06/19 01:39:05;;;;;;;;;;;;;;;17.33;90.87;101010.68;107396;1254;108338;-65
2023/06/19 01:41:34;;;;;;;;;;;;;;;17.31;90.59;101010.17;107412;1254;99177;-67
2023/06/19 01:44:02;;;;;;;;;;;;;;;17.33;90.50;101014.04;107339;1259;99054;-67
2023/06/19 01:46:30;;;;;;;;;;;;;;;17.35;90.36;101011.90;107468;1259;113806;-65
2023/06/19 01:48:59;;;;;;;;;;;;;;;17.39;90.19;101018.14;107444;1259;109773;-66
2023/06/19 01:51:28;;;;;;;;;;;;;;;17.45;90.35;101016.39;107430;1254;108134;-65
2023/06/19 01:53:56;;;;;;;;;;;;;;;17.52;90.11;101017.59;107461;1254;99182;-66
2023/06/19 01:56:24;;;;;;;;;;;;;;;17.58;90.13;101014.91;107475;1258;99182;-67
2023/06/19 01:58:52;;;;;;;;;;;;;;;17.63;89.90;101010.66;107292;1255;113974;-66
2023/06/19 02:01:20;;;;;;;;;;;;;;;17.66;89.41;101013.98;107307;1259;110398;-71
2023/06/19 02:03:48;;;;;;;;;;;;;;;17.64;88.83;101017.83;107439;1260;108075;-68
2023/06/19 02:06:16;;;;;;;;;;;;;;;17.64;88.70;101028.14;107441;1253;99179;-69
2023/06/19 02:08:44;;;;;;;;;;;;;;;17.62;88.25;101029.25;107450;1254;99026;-65
2023/06/19 02:11:12;;;;;;;;;;;;;;;17.67;88.57;101033.23;107440;1254;112289;-67
2023/06/19 02:13:41;;;;;;;;;;;;;;;17.74;88.75;101036.81;107324;1259;109462;-67
2023/06/19 02:16:09;;;;;;;;;;;;;;;17.77;88.18;101038.69;107436;1258;106579;-67
2023/06/19 02:18:38;;;;;;;;;;;;;;;17.75;87.88;101041.12;107468;1258;99170;-67
2023/06/19 02:21:05;;;;;;;;;;;;;;;17.70;87.69;101036.79;107470;1254;99169;-66
2023/06/19 02:23:35;;;;;;;;;;;;;;;17.66;87.59;101034.08;107459;1254;112774;-67
2023/06/19 02:26:03;;;;;;;;;;;;;;;17.67;87.72;101040.84;107439;1255;108777;-66
2023/06/19 02:28:31;;;;;;;;;;;;;;;17.68;87.86;101039.85;107442;1259;106773;-67
2023/06/19 02:30:59;;;;;;;;;;;;;;;17.67;87.68;101042.30;107274;1259;99298;-66
2023/06/19 02:33:28;;;;;;;;;;;;;;;17.74;88.02;101041.70;107441;1254;99161;-67
2023/06/19 02:35:58;;;;;;;;;;;;;;;17.82;87.98;101039.90;107422;1254;113694;-67
2023/06/19 02:38:30;;;;;;;;;;;;;;;17.88;87.87;101038.09;107463;1260;109843;-67
2023/06/19 02:41:00;;;;;;;;;;;;;;;17.94;87.53;101039.02;107433;1260;107192;-66
2023/06/19 02:43:28;;;;;;;;;;;;;;;17.96;87.07;101038.46;107380;1258;99193;-67
2023/06/19 02:45:57;;;;;;;;;;;;;;;17.98;86.90;101036.44;107409;1254;99093;-67
2023/06/19 02:48:25;;;;;;;;;;;;;;;18.03;86.80;101035.19;107423;1257;113248;-67
2023/06/19 02:50:54;;;;;;;;;;;;;;;18.08;86.73;101035.67;107443;1258;110035;-66
2023/06/19 02:53:23;;;;;;;;;;;;;;;18.10;86.49;101033.41;107405;1254;108108;-65
2023/06/19 02:55:51;;;;;;;;;;;;;;;18.13;86.42;101033.75;107446;1259;99288;-69
2023/06/19 02:58:19;;;;;;;;;;;;;;;18.16;86.38;101041.92;107406;1254;99077;-67
2023/06/19 03:00:48;;;;;;;;;;;;;;;18.23;86.59;101044.70;107470;1259;113132;-67
2023/06/19 03:03:16;;;;;;;;;;;;;;;18.28;86.58;101047.80;107409;1254;109622;-67
2023/06/19 03:05:44;;;;;;;;;;;;;;;18.31;86.14;101050.06;107452;1255;107102;-67
2023/06/19 03:08:13;;;;;;;;;;;;;;;18.26;85.53;101050.42;107393;1254;99263;-67
2023/06/19 03:10:43;;;;;;;;;;;;;;;18.23;85.20;101057.16;107412;1254;99172;-67
2023/06/19 03:13:12;;;;;;;;;;;;;;;18.21;85.25;101053.42;107412;1257;113225;-67
2023/06/19 03:15:41;;;;;;;;;;;;;;;18.13;85.11;101054.63;107400;1255;109613;-68
2023/06/19 03:18:10;;;;;;;;;;;;;;;18.06;85.15;101045.69;107402;1258;108569;-67
2023/06/19 03:20:39;;;;;;;;;;;;;;;17.97;85.07;101048.38;107420;1259;99150;-67
2023/06/19 03:23:07;;;;;;;;;;;;;;;17.86;85.27;101046.67;107317;1254;99216;-66
2023/06/19 03:25:36;;;;;;;;;;;;;;;17.81;85.61;101049.30;107387;1254;113352;-68
2023/06/19 03:28:07;;;;;;;;;;;;;;;17.76;85.97;101050.02;107434;1254;108420;-67
2023/06/19 03:30:36;;;;;;;;;;;;;;;17.74;85.83;101046.25;107273;1254;108740;-66
2023/06/19 03:33:05;;;;;;;;;;;;;;;17.74;85.97;101041.36;107375;1260;99327;-66
2023/06/19 03:35:40;;;;;;;;;;;;;;;17.74;86.26;101037.52;107414;1260;99042;-66
2023/06/19 03:38:13;;;;;;;;;;;;;;;17.74;86.35;101038.27;107424;1255;113454;-66
2023/06/19 03:40:42;;;;;;;;;;;;;;;17.74;86.30;101033.58;107404;1254;109154;-67
2023/06/19 03:43:12;;;;;;;;;;;;;;;17.78;86.33;101031.98;107346;1258;107135;-68
2023/06/19 03:45:40;;;;;;;;;;;;;;;17.86;86.56;101025.25;107386;1257;99058;-70
2023/06/19 03:48:09;;;;;;;;;;;;;;;17.97;86.56;101026.20;107431;1260;99317;-66
2023/06/19 03:50:37;;;;;;;;;;;;;;;18.09;86.46;101019.60;107578;1256;113100;-66
2023/06/19 03:53:08;;;;;;;;;;;;;;;18.19;86.27;101021.91;107476;1258;109283;-67
2023/06/19 03:55:38;;;;;;;;;;;;;;;18.24;85.89;101024.54;107371;1254;108037;-71
2023/06/19 03:58:06;;;;;;;;;;;;;;;18.30;85.85;101023.85;107380;1260;99026;-69
2023/06/19 04:00:34;;;;;;;;;;;;;;;18.35;85.16;101025.99;107447;1260;99233;-67
2023/06/19 04:03:02;;;;;;;;;;;;;;;18.35;84.84;101024.49;107322;1254;112748;-67
2023/06/19 04:05:31;;;;;;;;;;;;;;;18.42;84.92;101026.75;107290;1254;110137;-69
2023/06/19 04:07:59;;;;;;;;;;;;;;;18.50;85.00;101030.71;107350;1254;110015;-69
2023/06/19 04:10:27;;;;;;;;;;;;;;;18.56;84.38;101029.10;107349;1258;99186;-67
2023/06/19 04:12:55;;;;;;;;;;;;;;;18.60;83.75;101024.23;107282;1255;99087;-68
2023/06/19 04:15:24;;;;;;;;;;;;;;;18.67;83.87;101027.14;107270;1254;113111;-67
2023/06/19 04:17:53;;;;;;;;;;;;;;;18.78;84.27;101023.10;107419;1257;109936;-66
2023/06/19 04:20:22;;;;;;;;;;;;;;;18.89;83.92;101014.36;107274;1259;108779;-66
2023/06/19 04:22:51;;;;;;;;;;;;;;;18.95;83.64;101006.49;107372;1254;99195;-68
2023/06/19 04:25:19;;;;;;;;;;;;;;;19.05;83.54;101005.94;107406;1257;99151;-70
2023/06/19 04:27:47;;;;;;;;;;;;;;;19.11;82.97;101008.23;107262;1254;113150;-68
2023/06/19 04:30:15;;;;;;;;;;;;;;;19.10;82.17;101008.43;107378;1254;109967;-68
2023/06/19 04:32:46;;;;;;;;;;;;;;;19.01;81.07;101006.59;107470;1254;108198;-68
2023/06/19 04:35:18;;;;;;;;;;;;;;;18.93;80.64;101011.73;107417;1254;99169;-67
2023/06/19 04:37:48;;;;;;;;;;;;;;;18.91;80.88;101010.67;107445;1254;99240;-68
2023/06/19 04:40:17;;;;;;;;;;;;;;;18.93;80.98;101018.20;107447;1255;112916;-67
2023/06/19 04:42:45;;;;;;;;;;;;;;;18.92;80.25;101023.35;107447;1254;110230;-66
2023/06/19 04:45:14;;;;;;;;;;;;;;;18.90;79.95;101032.09;107430;1254;107781;-68
2023/06/19 04:47:44;;;;;;;;;;;;;;;18.85;79.73;101041.11;107348;1260;100043;-68
2023/06/19 04:50:21;;;;;;;;;;;;;;;18.92;80.37;101046.00;107474;1254;99060;-68
2023/06/19 04:52:50;;;;;;;;;;;;;;;19.01;80.40;101047.30;107439;1254;113504;-67
2023/06/19 04:55:20;;;;;;;;;;;;;;;19.12;80.85;101054.69;107423;1257;109720;-70
2023/06/19 04:57:48;;;;;;;;;;;;;;;19.19;80.47;101052.41;107415;1254;108119;-69
2023/06/19 05:00:18;;;;;;;;;;;;;;;19.16;78.58;101060.00;107379;1254;99175;-67
2023/06/19 05:02:47;;;;;;;;;;;;;;;19.09;78.57;101067.03;107451;1254;99063;-67
2023/06/19 05:05:17;;;;;;;;;;;;;;;19.12;79.06;101078.35;107402;1254;113308;-67
2023/06/19 05:07:50;;;;;;;;;;;;;;;19.17;79.07;101081.75;107369;1254;109219;-68
2023/06/19 05:10:19;;;;;;;;;;;;;;;19.22;79.04;101084.60;107418;1257;108379;-68
2023/06/19 05:12:47;;;;;;;;;;;;;;;19.28;79.01;101077.17;107418;1255;99323;-68
2023/06/19 05:15:15;;;;;;;;;;;;;;;19.27;78.09;101075.05;107421;1257;99179;-67
2023/06/19 05:17:46;;;;;;;;;;;;;;;19.18;77.50;101073.17;107306;1254;112619;-67
2023/06/19 05:20:15;;;;;;;;;;;;;;;19.20;78.12;101071.73;107395;1254;109314;-66
2023/06/19 05:22:43;;;;;;;;;;;;;;;19.18;78.33;101077.75;107397;1254;108132;-69
2023/06/19 05:25:12;;;;;;;;;;;;;;;19.11;78.55;101082.61;107390;1254;99178;-67
2023/06/19 05:27:40;;;;;;;;;;;;;;;19.02;78.89;101082.30;107311;1254;99234;-67
2023/06/19 05:30:08;;;;;;;;;;;;;;;18.91;79.40;101077.73;107439;1254;112822;-66
2023/06/19 05:32:36;;;;;;;;;;;;;;;18.86;80.00;101073.41;107475;1255;109975;-69
2023/06/19 05:35:05;;;;;;;;;;;;;;;18.83;80.15;101069.20;107406;1254;107490;-68
2023/06/19 05:37:33;;;;;;;;;;;;;;;18.84;80.46;101058.02;107386;1257;99184;-68
2023/06/19 05:40:02;;;;;;;;;;;;;;;18.89;80.59;101064.87;107344;1254;99179;-67
2023/06/19 05:42:30;;;;;;;;;;;;;;;18.95;80.66;101062.31;107488;1254;112594;-67
2023/06/19 05:44:58;;;;;;;;;;;;;;;19.00;80.35;101070.48;107422;1254;109938;-67
2023/06/19 05:47:26;;;;;;;;;;;;;;;19.09;80.86;101078.98;107414;1254;108106;-68
2023/06/19 05:49:54;;;;;;;;;;;;;;;19.23;81.24;101084.23;107431;1254;99170;-67
2023/06/19 05:52:23;;;;;;;;;;;;;;;19.36;81.13;101093.54;107395;1254;99057;-72
2023/06/19 05:54:53;;;;;;;;;;;;;;;19.41;80.28;101098.27;107428;1254;113235;-65
2023/06/19 05:57:21;;;;;;;;;;;;;;;19.43;80.23;101101.11;107468;1254;109183;-67
2023/06/19 05:59:50;;;;;;;;;;;;;;;19.48;80.08;101102.16;107433;1254;108257;-69
2023/06/19 06:02:19;;;;;;;;;;;;;;;19.49;80.07;101095.66;107387;1254;99039;-68
2023/06/19 06:04:48;;;;;;;;;;;;;;;19.51;80.27;101089.36;107306;1260;99086;-67
2023/06/19 06:07:17;;;;;;;;;;;;;;;19.58;81.06;101076.98;107448;1253;113244;-67
2023/06/19 06:09:45;;;;;;;;;;;;;;;19.57;80.85;101059.92;107426;1254;109237;-67
2023/06/19 06:12:14;;;;;;;;;;;;;;;19.41;80.24;101046.69;107297;1254;108134;-66
2023/06/19 06:14:42;;;;;;;;;;;;;;;19.32;80.73;101044.66;107293;1254;99226;-67
2023/06/19 06:17:10;;;;;;;;;;;;;;;19.25;80.75;101046.55;107444;1254;99030;-66
2023/06/19 06:19:38;;;;;;;;;;;;;;;19.19;81.14;101056.36;107408;1254;113675;-64
2023/06/19 06:22:07;;;;;;;;;;;;;;;19.25;81.16;101064.63;107444;1257;109934;-64
2023/06/19 06:24:35;;;;;;;;;;;;;;;19.37;81.61;101073.64;107416;1254;107281;-66
2023/06/19 06:27:05;;;;;;;;;;;;;;;19.47;81.15;101065.38;107414;1254;99175;-67
2023/06/19 06:29:33;;;;;;;;;;;;;;;19.50;80.39;101064.02;107456;1254;99194;-66
2023/06/19 06:32:05;;;;;;;;;;;;;;;19.52;80.51;101062.59;107402;1254;112486;-65
2023/06/19 06:34:34;;;;;;;;;;;;;;;19.54;80.47;101065.05;107448;1254;110074;-65
2023/06/19 06:37:02;;;;;;;;;;;;;;;19.59;80.71;101065.23;107385;1254;107473;-65
2023/06/19 06:39:34;;;;;;;;;;;;;;;19.64;80.67;101069.30;107357;1260;99282;-66
2023/06/19 06:42:02;;;;;;;;;;;;;;;19.73;80.73;101075.54;107366;1257;99191;-65
2023/06/19 06:44:30;;;;;;;;;;;;;;;19.86;80.49;101078.64;107416;1254;111099;-66
2023/06/19 06:46:58;;;;;;;;;;;;;;;19.98;79.84;101081.77;107307;1254;108733;-65
2023/06/19 06:49:26;;;;;;;;;;;;;;;20.03;78.96;101083.86;107321;1254;106437;-69
2023/06/19 06:51:55;;;;;;;;;;;;;;;20.07;78.63;101085.47;107357;1254;99042;-69
2023/06/19 06:54:25;;;;;;;;;;;;;;;20.07;77.82;101086.94;107433;1257;99768;-67
2023/06/19 06:56:56;;;;;;;;;;;;;;;20.08;78.10;101086.85;107373;1254;113079;-67
2023/06/19 06:59:25;;;;;;;;;;;;;;;20.10;78.21;101084.36;107378;1254;110184;-66
2023/06/19 07:01:54;;;;;;;;;;;;;;;20.22;78.44;101086.26;107344;1254;107647;-67
2023/06/19 07:04:22;;;;;;;;;;;;;;;20.23;78.04;101084.59;107323;1257;99140;-67
2023/06/19 07:06:51;;;;;;;;;;;;;;;20.30;78.11;101087.54;107364;1257;99037;-65
2023/06/19 07:09:21;;;;;;;;;;;;;;;20.43;78.82;101088.16;107325;1257;112821;-66
2023/06/19 07:11:49;;;;;;;;;;;;;;;20.62;78.95;101088.20;107389;1254;109699;-67
2023/06/19 07:14:20;;;;;;;;;;;;;;;20.80;78.72;101083.70;107344;1254;108777;-66
2023/06/19 07:16:50;;;;;;;;;;;;;;;20.98;78.28;101080.36;107373;1255;99263;-67
2023/06/19 07:19:18;;;;;;;;;;;;;;;21.16;77.94;101081.36;107301;1257;99049;-65
2023/06/19 07:21:47;;;;;;;;;;;;;;;21.26;77.00;101081.11;107354;1254;112746;-69
2023/06/19 07:24:15;;;;;;;;;;;;;;;21.38;77.06;101084.42;107334;1257;110017;-68
2023/06/19 07:26:46;;;;;;;;;;;;;;;21.51;76.91;101088.13;107347;1254;108172;-67
2023/06/19 07:29:16;;;;;;;;;;;;;;;21.59;76.07;101091.78;107396;1254;99275;-68
2023/06/19 07:31:44;;;;;;;;;;;;;;;21.72;75.46;101089.80;107399;1254;99170;-66
2023/06/19 07:34:12;;;;;;;;;;;;;;;21.80;74.80;101091.15;107378;1254;113568;-68
2023/06/19 07:36:42;;;;;;;;;;;;;;;21.86;74.52;101094.16;107397;1254;109092;-67
2023/06/19 07:39:10;;;;;;;;;;;;;;;21.94;74.14;101094.41;107427;1253;107575;-68
2023/06/19 07:41:39;;;;;;;;;;;;;;;22.00;74.02;101091.36;107362;1254;99227;-66
2023/06/19 07:44:07;;;;;;;;;;;;;;;22.07;74.32;101092.28;107414;1254;99166;-69
2023/06/19 07:46:35;;;;;;;;;;;;;;;22.16;73.91;101096.40;107287;1254;112387;-69
2023/06/19 07:49:04;;;;;;;;;;;;;;;22.22;73.16;101092.92;107416;1254;107559;-72
2023/06/19 07:51:32;;;;;;;;;;;;;;;22.27;72.82;101094.77;107385;1254;108679;-68
2023/06/19 07:54:00;;;;;;;;;;;;;;;22.36;72.47;101094.52;107423;1254;99969;-67
2023/06/19 07:56:28;;;;;;;;;;;;;;;22.44;72.41;101096.96;107443;1254;99092;-67
2023/06/19 07:58:57;;;;;;;;;;;;;;;22.54;72.28;101098.64;107393;1254;113206;-67
2023/06/19 08:01:25;;;;;;;;;;;;;;;22.61;71.66;101103.50;106788;1254;900963;-68
2023/06/19 08:03:53;;;;;;;;;;;;;;;22.72;71.57;101104.70;107354;1257;108803;-67
2023/06/19 08:06:21;;;;;;;;;;;;;;;22.84;71.55;101105.60;107346;1254;99208;-68
2023/06/19 08:08:51;;;;;;;;;;;;;;;22.92;69.76;101103.99;107357;1257;99295;-68
2023/06/19 08:11:19;;;;;;;;;;;;;;;22.87;69.18;101105.17;107113;1254;112248;-68
2023/06/19 08:13:50;;;;;;;;;;;;;;;22.92;69.68;101107.80;107385;1254;108914;-69
2023/06/19 08:16:18;;;;;;;;;;;;;;;23.03;69.67;101108.52;107362;1257;107797;-69
2023/06/19 08:18:47;;;;;;;;;;;;;;;23.12;68.96;101108.35;107331;1254;99189;-69
2023/06/19 08:21:15;;;;;;;;;;;;;;;23.25;69.08;101111.40;107413;1254;99049;-66
2023/06/19 08:23:44;;;;;;;;;;;;;;;23.37;67.97;101114.83;107418;1257;113696;-68
2023/06/19 08:26:12;;;;;;;;;;;;;;;23.47;67.28;101111.00;107425;1254;109309;-68
2023/06/19 08:28:41;;;;;;;;;;;;;;;23.54;66.41;101108.88;107378;1257;108162;-68
2023/06/19 08:31:10;;;;;;;;;;;;;;;23.58;65.81;101112.21;107402;1253;99189;-67
2023/06/19 08:33:39;;;;;;;;;;;;;;;23.53;65.37;101114.89;107416;1254;99456;-67
2023/06/19 08:36:08;;;;;;;;;;;;;;;23.50;66.35;101114.88;107342;1257;115283;-68
2023/06/19 08:38:36;;;;;;;;;;;;;;;23.50;66.11;101111.08;107345;1256;109601;-68
2023/06/19 08:41:05;;;;;;;;;;;;;;;23.46;66.20;101107.75;107376;1254;108129;-68
2023/06/19 08:43:33;;;;;;;;;;;;;;;23.43;65.93;101103.36;107367;1254;99154;-68
2023/06/19 08:46:01;;;;;;;;;;;;;;;23.44;66.18;101106.95;107377;1254;99166;-68
2023/06/19 08:48:29;;;;;;;;;;;;;;;23.50;66.57;101107.66;107353;1253;113316;-66
2023/06/19 08:50:57;;;;;;;;;;;;;;;23.57;66.71;101108.28;107344;1254;109772;-67
2023/06/19 08:53:26;;;;;;;;;;;;;;;23.66;66.47;101108.89;107340;1254;107288;-68
2023/06/19 08:55:54;;;;;;;;;;;;;;;23.70;66.58;101109.02;107343;1254;99173;-68
2023/06/19 08:58:23;;;;;;;;;;;;;;;23.76;66.55;101111.98;107279;1257;99186;-67
2023/06/19 09:00:51;;;;;;;;;;;;;;;23.79;65.96;101110.04;107435;1254;112514;-68
2023/06/19 09:03:21;;;;;;;;;;;;;;;23.77;65.67;101111.52;107502;1254;109036;-68
2023/06/19 09:05:50;;;;;;;;;;;;;;;23.79;65.96;101107.22;107441;1254;106793;-65
2023/06/19 09:08:21;;;;;;;;;;;;;;;23.80;65.79;101106.31;107304;1254;99663;-67
2023/06/19 09:11:00;;;;;;;;;;;;;;;23.83;65.98;101102.76;107576;1253;99173;-67
2023/06/19 09:13:29;;;;;;;;;;;;;;;23.87;65.72;101099.16;107566;1254;113872;-67
2023/06/19 09:16:02;;;;;;;;;;;;;;;23.87;65.74;101096.03;107417;1254;110841;-66
2023/06/19 09:18:31;;;;;;;;;;;;;;;23.84;65.58;101091.81;107389;1254;107784;-67
2023/06/19 09:20:59;;;;;;;;;;;;;;;23.84;65.81;101089.91;107360;1254;99191;-67
2023/06/19 09:23:27;;;;;;;;;;;;;;;23.83;65.82;101088.69;107446;1254;99056;-66
2023/06/19 09:25:59;;;;;;;;;;;;;;;23.83;66.18;101088.31;107380;1254;112574;-66
2023/06/19 09:28:39;;;;;;;;;;;;;;;23.81;65.75;101088.52;107386;1254;109942;-67
2023/06/19 09:31:08;;;;;;;;;;;;;;;23.70;65.40;101091.05;107396;1254;108293;-67
2023/06/19 09:33:37;;;;;;;;;;;;;;;23.62;66.05;101085.11;107346;1254;99192;-67
2023/06/19 09:36:05;;;;;;;;;;;;;;;23.55;66.59;101088.00;107343;1257;99132;-66
2023/06/19 09:38:40;;;;;;;;;;;;;;;23.49;66.91;101089.54;107407;1257;113937;-67
2023/06/19 09:41:12;;;;;;;;;;;;;;;23.30;67.49;101096.80;107407;1254;108765;-67
2023/06/19 09:43:46;;;;;;;;;;;;;;;22.99;69.12;101095.09;107349;1254;108226;-69
2023/06/19 09:46:17;;;;;;;;;;;;;;;22.72;70.47;101098.33;107306;1254;99186;-68
2023/06/19 09:48:46;;;;;;;;;;;;;;;22.47;70.75;101095.92;107349;1254;99269;-67
2023/06/19 09:51:21;;;;;;;;;;;;;;;22.36;71.43;101100.17;107332;1257;113234;-66
2023/06/19 09:53:53;;;;;;;;;;;;;;;22.24;72.03;101102.79;107345;1254;109531;-67
2023/06/19 09:56:22;;;;;;;;;;;;;;;22.19;72.76;101102.19;107370;1257;107832;-66
2023/06/19 09:58:52;;;;;;;;;;;;;;;22.13;73.46;101097.85;107379;1254;99243;-67
2023/06/19 10:01:21;;;;;;;;;;;;;;;22.07;73.67;101095.91;107414;1254;99240;-66
2023/06/19 10:03:49;;;;;;;;;;;;;;;22.09;74.04;101089.79;107385;1253;113811;-66
2023/06/19 10:06:19;;;;;;;;;;;;;;;22.08;75.28;101083.77;107399;1254;110188;-67
2023/06/19 10:08:48;;;;;;;;;;;;;;;22.05;75.96;101085.44;107340;1254;108475;-66
2023/06/19 10:11:16;;;;;;;;;;;;;;;22.01;75.88;101079.14;107347;1257;99283;-66
2023/06/19 10:13:44;;;;;;;;;;;;;;;22.04;75.99;101077.14;107376;1257;99156;-68
2023/06/19 10:16:23;;;;;;;;;;;;;;;22.09;76.03;101074.66;107435;1254;112808;-66
2023/06/19 10:18:51;;;;;;;;;;;;;;;22.07;75.98;101073.27;107391;1254;110197;-66
2023/06/19 10:21:20;;;;;;;;;;;;;;;22.02;76.17;101071.61;107449;1254;107745;-66
2023/06/19 10:24:11;;;;;;;;;;;;;;;21.91;76.12;101070.52;107408;1254;99157;-66
2023/06/19 10:26:39;;;;;;;;;;;;;;;21.97;76.38;101063.28;107374;1254;99179;-67
2023/06/19 10:29:14;;;;;;;;;;;;;;;22.06;76.84;101065.73;107413;1254;112664;-67
2023/06/19 10:31:44;;;;;;;;;;;;;;;22.14;77.40;101064.31;107429;1254;109465;-67
2023/06/19 10:34:12;;;;;;;;;;;;;;;22.11;76.73;101061.86;107353;1254;109213;-67
2023/06/19 10:36:40;;;;;;;;;;;;;;;22.06;77.05;101060.99;107403;1257;99230;-67
2023/06/19 10:39:10;;;;;;;;;;;;;;;21.93;77.25;101058.13;107445;1254;99166;-67
2023/06/19 10:41:39;;;;;;;;;;;;;;;21.70;77.21;101060.17;107389;1254;112964;-67
2023/06/19 10:44:13;;;;;;;;;;;;;;;21.49;77.35;101055.58;107389;1254;109391;-68
2023/06/19 10:46:41;;;;;;;;;;;;;;;21.30;78.26;101057.14;107401;1257;107295;-67
2023/06/19 10:49:17;;;;;;;;;;;;;;;21.20;78.55;101056.05;107281;1254;99216;-68
2023/06/19 10:51:48;;;;;;;;;;;;;;;21.19;79.32;101054.84;107399;1254;99179;-67
2023/06/19 10:54:16;;;;;;;;;;;;;;;21.17;79.22;101057.14;107366;1254;112700;-67
2023/06/19 10:56:48;;;;;;;;;;;;;;;21.26;79.39;101055.05;107410;1253;109942;-67
2023/06/19 10:59:16;;;;;;;;;;;;;;;21.39;79.38;101055.10;107330;1254;108441;-67
2023/06/19 11:01:45;;;;;;;;;;;;;;;21.54;79.35;101052.28;107414;1254;99198;-67
2023/06/19 11:04:14;;;;;;;;;;;;;;;21.72;79.67;101050.34;107428;1254;99314;-66
2023/06/19 11:06:44;;;;;;;;;;;;;;;21.90;79.64;101046.95;107453;1254;112354;-67
2023/06/19 11:09:13;;;;;;;;;;;;;;;22.03;79.39;101047.54;107207;1254;110266;-66
2023/06/19 11:11:46;;;;;;;;;;;;;;;22.08;78.53;101043.36;107268;1259;109040;-69
2023/06/19 11:14:15;;;;;;;;;;;;;;;22.16;78.45;101039.88;107428;1254;99083;-72
2023/06/19 11:16:47;;;;;;;;;;;;;;;22.26;77.90;101038.83;107434;1254;99233;-69
2023/06/19 11:19:18;;;;;;;;;;;;;;;22.37;77.79;101038.74;107363;1254;113324;-66
2023/06/19 11:21:48;;;;;;;;;;;;;;;22.56;77.96;101035.95;107396;1254;108196;-69
2023/06/19 11:24:17;;;;;;;;;;;;;;;22.77;77.95;101031.85;107359;1254;107544;-66
2023/06/19 11:26:50;;;;;;;;;;;;;;;22.98;77.24;101032.94;107427;1253;99188;-67
2023/06/19 11:29:20;;;;;;;;;;;;;;;23.16;75.67;101027.34;107344;1254;99170;-65
2023/06/19 11:31:49;;;;;;;;;;;;;;;23.33;75.61;101024.84;107388;1254;112720;-67
2023/06/19 11:34:18;;;;;;;;;;;;;;;23.68;74.85;101022.64;107423;1254;109134;-66
2023/06/19 11:36:50;;;;;;;;;;;;;;;24.05;74.24;101026.18;107322;1254;107297;-65
2023/06/19 11:39:18;;;;;;;;;;;;;;;24.51;73.75;101027.30;107139;1259;99181;-66
2023/06/19 11:41:53;;;;;;;;;;;;;;;24.88;72.28;101024.80;107239;1255;99164;-67
2023/06/19 11:44:22;;;;;;;;;;;;;;;25.16;70.49;101025.65;107340;1254;113099;-64
2023/06/19 11:46:56;;;;;;;;;;;;;;;25.37;68.97;101019.46;107394;1254;109812;-69
2023/06/19 11:49:28;;;;;;;;;;;;;;;25.49;67.22;101016.25;107202;1256;108761;-67
2023/06/19 11:51:57;;;;;;;;;;;;;;;25.58;66.83;101014.80;107331;1254;99103;-67
2023/06/19 11:54:30;;;;;;;;;;;;;;;25.74;67.03;101016.25;107364;1254;99160;-68
2023/06/19 11:57:01;;;;;;;;;;;;;;;25.96;67.18;101010.02;107359;1253;112887;-67
2023/06/19 11:59:31;;;;;;;;;;;;;;;26.21;66.86;101007.19;107337;1257;109668;-68
2023/06/19 12:01:59;;;;;;;;;;;;;;;26.51;65.57;101004.92;107210;1254;108479;-68
2023/06/19 12:04:31;;;;;;;;;;;;;;;26.81;64.37;100997.95;107100;1254;99186;-66
2023/06/19 12:07:00;;;;;;;;;;;;;;;27.09;61.87;100993.41;107329;1254;99066;-66
2023/06/19 12:09:28;;;;;;;;;;;;;;;27.30;60.65;100991.11;107402;1257;113228;-67
2023/06/19 12:11:57;;;;;;;;;;;;;;;27.94;59.87;100987.45;107297;1254;110029;-65
2023/06/19 12:14:26;;;;;;;;;;;;;;;28.88;58.89;100986.79;107272;1254;108291;-67
2023/06/19 12:16:58;;;;;;;;;;;;;;;29.76;54.69;100987.48;107302;1255;99282;-70
2023/06/19 12:19:29;;;;;;;;;;;;;;;30.17;54.40;100984.99;107240;1254;99242;-67
2023/06/19 12:21:59;;;;;;;;;;;;;;;30.34;53.04;100983.48;107373;1254;113295;-67
2023/06/19 12:24:27;;;;;;;;;;;;;;;30.82;51.03;100975.83;107300;1254;110009;-68
2023/06/19 12:26:55;;;;;;;;;;;;;;;31.13;50.37;100972.08;107309;1254;108307;-69
2023/06/19 12:29:24;;;;;;;;;;;;;;;31.53;50.07;100967.70;107297;1257;99150;-67
2023/06/19 12:31:52;;;;;;;;;;;;;;;31.78;48.08;100963.30;107301;1257;99066;-68